createdAt,value
2022-12-08T00:00:09.248Z,41.28
2022-12-08T00:02:37.767Z,41.26
2022-12-08T00:05:24.597Z,40.98
2022-12-08T00:08:11.596Z,41.36
2022-12-08T00:10:48.947Z,41.43
2022-12-08T00:13:18.005Z,41.47
2022-12-08T00:15:46.399Z,41.01
2022-12-08T00:18:15.020Z,41.03
2022-12-08T00:20:43.416Z,41.25
2022-12-08T00:23:13.198Z,41.04
2022-12-08T00:25:41.519Z,41.31
2022-12-08T00:28:09.908Z,41.47
2022-12-08T00:30:41.166Z,41.10
2022-12-08T00:33:09.880Z,41.11
2022-12-08T00:35:42.894Z,41.38
2022-12-08T00:38:13.200Z,41.35
2022-12-08T00:40:46.323Z,41.30
2022-12-08T00:43:14.878Z,41.20
2022-12-08T00:45:44.049Z,41.02
2022-12-08T00:48:13.229Z,41.16
2022-12-08T00:50:41.581Z,40.98
2022-12-08T00:53:09.961Z,41.07
2022-12-08T00:55:39.653Z,40.89
2022-12-08T00:58:08.021Z,40.78
2022-12-08T01:00:36.373Z,40.81
2022-12-08T01:03:04.848Z,41.10
2022-12-08T01:05:33.361Z,40.76
2022-12-08T01:08:01.845Z,41.17
2022-12-08T01:10:30.289Z,41.00
2022-12-08T01:13:00.103Z,40.54
2022-12-08T01:15:28.525Z,41.16
2022-12-08T01:17:57.173Z,40.91
2022-12-08T01:20:25.826Z,40.80
2022-12-08T01:22:54.149Z,40.74
2022-12-08T01:25:22.511Z,40.98
2022-12-08T01:27:52.774Z,40.55
2022-12-08T01:30:23.157Z,40.45
2022-12-08T01:32:51.484Z,40.81
2022-12-08T01:35:19.952Z,40.55
2022-12-08T01:37:48.292Z,40.88
2022-12-08T01:40:16.968Z,40.82
2022-12-08T01:42:45.291Z,40.66
2022-12-08T01:45:19.757Z,40.50
2022-12-08T01:47:52.856Z,40.58
2022-12-08T01:50:21.845Z,40.61
2022-12-08T01:52:54.496Z,40.34
2022-12-08T01:55:27.366Z,40.85
2022-12-08T01:58:01.853Z,40.66
2022-12-08T02:00:30.394Z,40.54
2022-12-08T02:03:03.577Z,40.77
2022-12-08T02:05:36.147Z,40.52
2022-12-08T02:08:08.736Z,40.65
2022-12-08T02:10:40.952Z,40.76
2022-12-08T02:13:16.191Z,40.92
2022-12-08T02:16:01.781Z,40.79
2022-12-08T02:19:22.440Z,40.84
2022-12-08T02:21:55.533Z,40.93
2022-12-08T02:24:36.002Z,41.14
2022-12-08T02:27:26.268Z,40.99
2022-12-08T02:30:17.212Z,41.00
2022-12-08T02:33:24.239Z,41.02
2022-12-08T02:36:00.979Z,40.67
2022-12-08T02:38:42.186Z,40.84
2022-12-08T02:41:25.650Z,40.74
2022-12-08T02:44:03.047Z,40.75
2022-12-08T02:46:39.471Z,40.70
2022-12-08T02:49:08.600Z,40.94
2022-12-08T02:51:38.354Z,40.63
2022-12-08T02:54:07.268Z,40.84
2022-12-08T02:57:13.858Z,40.49
2022-12-08T03:00:03.078Z,40.53
2022-12-08T03:02:52.211Z,40.51
2022-12-08T03:05:54.125Z,40.57
2022-12-08T03:08:34.317Z,40.21
2022-12-08T03:11:10.655Z,40.48
2022-12-08T03:13:44.856Z,40.56
2022-12-08T03:16:21.006Z,40.37
2022-12-08T03:18:57.469Z,40.50
2022-12-08T03:21:26.518Z,40.34
2022-12-08T03:23:58.786Z,40.28
2022-12-08T03:26:32.923Z,40.52
2022-12-08T03:29:01.624Z,40.28
2022-12-08T03:31:35.579Z,40.40
2022-12-08T03:34:06.251Z,40.46
2022-12-08T03:36:34.711Z,40.56
2022-12-08T03:39:05.125Z,40.55
2022-12-08T03:41:33.615Z,40.28
2022-12-08T03:44:02.007Z,40.39
2022-12-08T03:46:32.099Z,40.49
2022-12-08T03:49:00.521Z,40.17
2022-12-08T03:51:28.907Z,40.26
2022-12-08T03:53:57.384Z,40.37
2022-12-08T03:56:29.392Z,40.10
2022-12-08T03:58:58.087Z,40.31
2022-12-08T04:01:27.465Z,40.64
2022-12-08T04:03:56.173Z,40.25
2022-12-08T04:06:24.630Z,40.61
2022-12-08T04:08:53.384Z,40.68
2022-12-08T04:11:21.860Z,40.32
2022-12-08T04:13:51.631Z,40.40
2022-12-08T04:16:23.957Z,40.51
2022-12-08T04:18:52.779Z,40.62
2022-12-08T04:21:21.639Z,40.51
2022-12-08T04:23:51.527Z,40.74
2022-12-08T04:26:22.309Z,40.43
2022-12-08T04:28:52.049Z,40.75
2022-12-08T04:31:20.426Z,40.79
2022-12-08T04:33:49.169Z,40.99
2022-12-08T04:36:17.516Z,40.45
2022-12-08T04:38:45.897Z,41.00
2022-12-08T04:41:14.242Z,40.76
2022-12-08T04:43:44.419Z,40.79
2022-12-08T04:46:14.176Z,41.04
2022-12-08T04:48:43.083Z,40.60
2022-12-08T04:51:17.776Z,40.77
2022-12-08T04:53:47.301Z,40.80
2022-12-08T04:56:17.428Z,40.67
2022-12-08T04:58:46.019Z,40.97
2022-12-08T05:01:16.262Z,40.99
2022-12-08T05:03:44.717Z,40.91
2022-12-08T05:06:15.239Z,40.92
2022-12-08T05:08:44.195Z,41.14
2022-12-08T05:11:14.225Z,41.02
2022-12-08T05:13:42.588Z,40.99
2022-12-08T05:16:14.027Z,40.79
2022-12-08T05:18:44.578Z,40.95
2022-12-08T05:21:13.341Z,40.73
2022-12-08T05:23:41.745Z,40.93
2022-12-08T05:26:10.171Z,40.80
2022-12-08T05:28:41.932Z,41.15
2022-12-08T05:31:11.646Z,41.15
2022-12-08T05:33:40.592Z,41.09
2022-12-08T05:36:11.472Z,40.73
2022-12-08T05:38:40.433Z,40.84
2022-12-08T05:41:10.004Z,41.12
2022-12-08T05:43:38.372Z,40.91
2022-12-08T05:46:08.148Z,40.56
2022-12-08T05:48:37.145Z,40.76
2022-12-08T05:51:06.050Z,40.84
2022-12-08T05:53:35.753Z,40.98
2022-12-08T05:56:04.187Z,40.87
2022-12-08T05:58:32.551Z,41.06
2022-12-08T06:01:00.948Z,40.94
2022-12-08T06:03:29.449Z,40.81
2022-12-08T06:05:57.953Z,40.74
2022-12-08T06:08:26.431Z,40.58
2022-12-08T06:10:56.207Z,41.06
2022-12-08T06:13:24.543Z,40.66
2022-12-08T06:15:52.958Z,40.92
2022-12-08T06:18:21.367Z,40.58
2022-12-08T06:20:49.785Z,40.55
2022-12-08T06:23:18.164Z,40.80
2022-12-08T06:25:46.547Z,40.99
2022-12-08T06:28:16.253Z,40.67
2022-12-08T06:30:44.709Z,40.54
2022-12-08T06:33:13.049Z,40.99
2022-12-08T06:35:41.407Z,40.51
2022-12-08T06:38:09.934Z,41.17
2022-12-08T06:40:38.332Z,41.12
2022-12-08T06:43:06.795Z,40.91
2022-12-08T06:45:36.608Z,40.94
2022-12-08T06:48:05.193Z,41.29
2022-12-08T06:50:35.131Z,40.80
2022-12-08T06:53:05.698Z,41.29
2022-12-08T06:55:57.782Z,41.15
2022-12-08T06:58:23.017Z,41.23
2022-12-08T07:00:52.844Z,41.25
2022-12-08T07:03:21.281Z,41.30
2022-12-08T07:05:49.775Z,41.48
2022-12-08T07:08:18.235Z,41.47
2022-12-08T07:10:46.621Z,41.67
2022-12-08T07:13:15.022Z,41.50
2022-12-08T07:15:43.402Z,41.72
2022-12-08T07:18:13.170Z,41.31
2022-12-08T07:20:41.531Z,41.73
2022-12-08T07:23:09.888Z,41.26
2022-12-08T07:25:38.327Z,41.56
2022-12-08T07:28:11.534Z,41.67
2022-12-08T07:30:40.364Z,41.56
2022-12-08T07:33:08.798Z,41.59
2022-12-08T07:35:38.533Z,41.58
2022-12-08T07:38:06.895Z,41.35
2022-12-08T07:40:35.294Z,41.37
2022-12-08T07:43:03.623Z,41.67
2022-12-08T07:45:32.127Z,41.86
2022-12-08T07:48:00.810Z,41.70
2022-12-08T07:50:29.207Z,41.59
2022-12-08T07:52:58.952Z,41.50
2022-12-08T07:55:27.521Z,41.93
2022-12-08T07:57:56.079Z,41.89
2022-12-08T08:00:24.841Z,41.71
2022-12-08T08:02:53.484Z,42.05
2022-12-08T08:05:22.032Z,41.88
2022-12-08T08:07:50.695Z,41.77
2022-12-08T08:10:20.564Z,41.89
2022-12-08T08:12:48.971Z,41.86
2022-12-08T08:15:17.927Z,41.98
2022-12-08T08:17:46.308Z,41.81
2022-12-08T08:20:16.028Z,42.27
2022-12-08T08:22:44.401Z,41.98
2022-12-08T08:25:12.782Z,42.01
2022-12-08T08:27:42.557Z,42.18
2022-12-08T08:30:19.700Z,42.15
2022-12-08T08:32:49.433Z,41.77
2022-12-08T08:35:18.225Z,41.82
2022-12-08T08:37:49.244Z,41.76
2022-12-08T08:40:18.443Z,41.90
2022-12-08T08:42:48.224Z,42.15
2022-12-08T08:45:16.724Z,41.80
2022-12-08T08:47:45.228Z,42.02
2022-12-08T08:50:13.914Z,41.96
2022-12-08T08:52:42.635Z,41.99
2022-12-08T08:55:11.763Z,42.13
2022-12-08T08:57:40.158Z,42.12
2022-12-08T09:00:12.292Z,42.03
2022-12-08T09:02:41.185Z,42.12
2022-12-08T09:05:10.305Z,42.16
2022-12-08T09:07:38.847Z,42.46
2022-12-08T09:10:09.651Z,42.30
2022-12-08T09:12:38.138Z,42.38
2022-12-08T09:15:09.568Z,42.58
2022-12-08T09:17:38.288Z,42.63
2022-12-08T09:20:08.873Z,42.72
2022-12-08T09:22:37.260Z,42.58
2022-12-08T09:25:06.687Z,42.62
2022-12-08T09:27:35.147Z,42.58
2022-12-08T09:30:03.891Z,42.14
2022-12-08T09:32:33.770Z,42.13
2022-12-08T09:35:02.637Z,42.48
2022-12-08T09:37:31.044Z,42.25
2022-12-08T09:40:00.143Z,42.17
2022-12-08T09:42:39.882Z,42.52
2022-12-08T09:45:12.423Z,42.37
2022-12-08T09:47:49.213Z,42.35
2022-12-08T09:50:30.908Z,42.38
2022-12-08T09:53:05.667Z,42.33
2022-12-08T09:55:43.542Z,42.21
2022-12-08T09:58:23.150Z,42.45
2022-12-08T10:00:51.513Z,42.41
2022-12-08T10:03:25.544Z,42.62
2022-12-08T10:06:07.841Z,42.51
2022-12-08T10:08:47.794Z,42.10
2022-12-08T10:11:28.033Z,42.28
2022-12-08T10:14:09.644Z,42.51
2022-12-08T10:16:42.979Z,42.58
2022-12-08T10:19:19.151Z,42.63
2022-12-08T10:21:47.756Z,42.38
2022-12-08T10:24:27.883Z,42.56
2022-12-08T10:26:57.936Z,42.46
2022-12-08T10:29:26.341Z,42.55
2022-12-08T10:31:54.981Z,42.45
2022-12-08T10:34:26.020Z,41.93
2022-12-08T10:36:57.152Z,41.61
2022-12-08T10:39:38.672Z,41.27
2022-12-08T10:42:19.927Z,40.88
2022-12-08T10:45:05.146Z,40.55
2022-12-08T10:47:40.717Z,40.16
2022-12-08T10:50:22.224Z,40.16
2022-12-08T10:52:58.551Z,40.22
2022-12-08T10:55:27.551Z,40.07
2022-12-08T10:57:55.966Z,40.13
2022-12-08T11:00:29.371Z,40.36
2022-12-08T11:03:01.196Z,40.48
2022-12-08T11:05:35.466Z,40.86
2022-12-08T11:08:06.033Z,40.83
2022-12-08T11:10:38.069Z,41.03
2022-12-08T11:13:15.620Z,40.77
2022-12-08T11:15:47.248Z,40.97
2022-12-08T11:18:28.122Z,41.03
2022-12-08T11:21:07.802Z,41.18
2022-12-08T11:23:38.441Z,41.19
2022-12-08T11:26:19.053Z,41.19
2022-12-08T11:28:47.624Z,41.29
2022-12-08T11:31:29.172Z,41.38
2022-12-08T11:33:58.190Z,41.36
2022-12-08T11:36:33.139Z,41.42
2022-12-08T11:39:05.767Z,41.40
2022-12-08T11:41:41.168Z,41.35
2022-12-08T11:44:26.898Z,41.23
2022-12-08T11:46:59.901Z,41.08
2022-12-08T11:49:36.827Z,41.45
2022-12-08T11:52:18.623Z,41.34
2022-12-08T11:54:51.960Z,41.54
2022-12-08T11:57:25.416Z,41.62
2022-12-08T11:59:57.810Z,41.63
2022-12-08T12:02:30.128Z,41.51
2022-12-08T12:05:05.320Z,41.47
2022-12-08T12:08:07.021Z,41.67
2022-12-08T12:10:51.257Z,41.87
2022-12-08T12:13:42.937Z,41.98
2022-12-08T12:16:40.038Z,41.92
2022-12-08T12:19:15.385Z,42.01
2022-12-08T12:21:46.561Z,42.01
2022-12-08T12:24:26.579Z,42.17
2022-12-08T12:27:02.817Z,42.19
2022-12-08T12:29:34.946Z,42.14
2022-12-08T12:32:07.016Z,42.24
2022-12-08T12:34:40.089Z,42.22
2022-12-08T12:37:13.906Z,42.07
2022-12-08T12:39:56.681Z,42.04
2022-12-08T12:42:41.307Z,42.03
2022-12-08T12:45:27.451Z,42.15
2022-12-08T12:48:26.716Z,42.20
2022-12-08T12:50:56.892Z,42.20
2022-12-08T12:53:52.084Z,42.16
2022-12-08T12:57:15.620Z,42.30
2022-12-08T12:59:54.658Z,42.30
2022-12-08T13:02:30.103Z,42.22
2022-12-08T13:05:09.317Z,42.50
2022-12-08T13:07:44.998Z,42.62
2022-12-08T13:10:22.276Z,42.47
2022-12-08T13:13:08.878Z,42.57
2022-12-08T13:15:40.257Z,42.61
2022-12-08T13:18:20.078Z,42.71
2022-12-08T13:20:53.511Z,42.92
2022-12-08T13:23:44.432Z,42.75
2022-12-08T13:26:20.830Z,42.75
2022-12-08T13:29:23.794Z,42.82
2022-12-08T13:31:55.127Z,42.83
2022-12-08T13:34:39.438Z,42.61
2022-12-08T13:37:25.533Z,42.66
2022-12-08T13:39:59.999Z,42.56
2022-12-08T13:42:38.185Z,42.79
2022-12-08T13:45:36.203Z,42.66
2022-12-08T13:48:30.507Z,42.78
2022-12-08T13:57:10.056Z,42.74
2022-12-08T13:59:45.791Z,42.93
2022-12-08T14:02:26.180Z,42.94
2022-12-08T14:07:46.154Z,43.11
2022-12-08T14:10:20.728Z,43.35
2022-12-08T14:12:56.727Z,43.00
2022-12-08T14:15:31.260Z,43.24
2022-12-08T14:18:04.014Z,43.41
2022-12-08T14:20:51.696Z,43.21
2022-12-08T14:23:22.970Z,43.20
2022-12-08T14:25:51.555Z,43.40
2022-12-08T14:28:21.786Z,43.74
2022-12-08T14:30:50.809Z,43.73
2022-12-08T14:33:21.294Z,43.54
2022-12-08T14:35:55.876Z,43.31
2022-12-08T14:38:27.267Z,43.85
2022-12-08T14:41:05.145Z,43.50
2022-12-08T14:43:34.003Z,43.62
2022-12-08T14:46:06.323Z,43.68
2022-12-08T14:48:44.718Z,43.88
2022-12-08T14:51:24.460Z,43.62
2022-12-08T14:53:58.701Z,43.68
2022-12-08T14:56:34.530Z,44.14
2022-12-08T14:59:16.228Z,44.01
2022-12-08T15:01:46.221Z,43.95
2022-12-08T15:04:21.312Z,44.14
2022-12-08T15:06:54.593Z,44.19
2022-12-08T15:09:33.198Z,44.28
2022-12-08T15:12:03.733Z,44.38
2022-12-08T15:14:35.834Z,44.19
2022-12-08T15:17:05.029Z,43.99
2022-12-08T15:19:35.879Z,44.39
2022-12-08T15:22:18.726Z,44.04
2022-12-08T15:24:47.060Z,44.00
2022-12-08T15:27:19.593Z,44.42
2022-12-08T15:29:49.045Z,44.31
2022-12-08T15:32:20.822Z,44.11
2022-12-08T15:34:51.600Z,44.45
2022-12-08T15:37:26.439Z,44.53
2022-12-08T15:39:55.272Z,44.28
2022-12-08T15:42:23.697Z,44.22
2022-12-08T15:44:52.130Z,44.61
2022-12-08T15:47:23.623Z,44.62
2022-12-08T15:49:53.768Z,44.46
2022-12-08T15:52:25.738Z,44.42
2022-12-08T15:54:54.874Z,44.48
2022-12-08T15:57:53.470Z,44.16
2022-12-08T16:00:51.945Z,44.79
2022-12-08T16:09:12.871Z,44.69
2022-12-08T16:12:08.540Z,44.83
2022-12-08T16:17:28.879Z,44.59
2022-12-08T16:19:57.722Z,44.77
2022-12-08T16:22:54.444Z,44.67
2022-12-08T16:25:20.352Z,44.51
2022-12-08T16:28:00.646Z,44.68
2022-12-08T16:30:32.107Z,44.58
2022-12-08T16:33:00.779Z,44.70
2022-12-08T16:35:29.375Z,44.57
2022-12-08T16:37:59.282Z,45.08
2022-12-08T16:40:27.906Z,44.71
2022-12-08T16:42:55.699Z,44.67
2022-12-08T16:45:27.249Z,45.10
2022-12-08T16:47:58.330Z,44.72
2022-12-08T16:50:29.517Z,44.75
2022-12-08T16:53:02.468Z,45.15
2022-12-08T16:55:31.604Z,45.13
2022-12-08T16:58:00.732Z,44.73
2022-12-08T17:00:31.293Z,44.78
2022-12-08T17:03:00.281Z,44.62
2022-12-08T17:05:28.691Z,44.84
2022-12-08T17:07:59.054Z,45.15
2022-12-08T17:10:31.711Z,44.88
2022-12-08T17:13:00.498Z,45.21
2022-12-08T17:15:29.749Z,44.98
2022-12-08T17:17:59.385Z,44.81
2022-12-08T17:20:30.047Z,45.18
2022-12-08T17:23:00.344Z,44.96
2022-12-08T17:25:29.026Z,45.34
2022-12-08T17:27:57.444Z,45.21
2022-12-08T17:30:26.418Z,45.25
2022-12-08T17:32:55.177Z,44.79
2022-12-08T17:35:24.049Z,45.21
2022-12-08T17:37:53.030Z,45.27
2022-12-08T17:40:26.865Z,45.44
2022-12-08T17:42:57.916Z,45.13
2022-12-08T17:45:28.066Z,45.46
2022-12-08T17:47:57.502Z,45.49
2022-12-08T17:50:26.048Z,45.33
2022-12-08T17:52:54.664Z,45.31
2022-12-08T17:55:25.775Z,45.53
2022-12-08T17:57:54.251Z,45.37
2022-12-08T18:00:23.310Z,45.41
2022-12-08T18:02:52.840Z,45.41
2022-12-08T18:05:23.758Z,45.50
2022-12-08T18:07:56.021Z,45.50
2022-12-08T18:10:26.268Z,45.29
2022-12-08T18:12:56.175Z,45.43
2022-12-08T18:15:26.581Z,45.52
2022-12-08T18:17:56.402Z,45.39
2022-12-08T18:20:25.721Z,45.76
2022-12-08T18:22:55.451Z,45.90
2022-12-08T18:25:25.807Z,45.90
2022-12-08T18:27:54.619Z,45.43
2022-12-08T18:30:24.088Z,45.73
2022-12-08T18:32:57.320Z,45.67
2022-12-08T18:35:27.666Z,45.59
2022-12-08T18:37:56.290Z,45.39
2022-12-08T18:40:27.628Z,45.43
2022-12-08T18:42:59.520Z,45.54
2022-12-08T18:45:34.294Z,45.59
2022-12-08T18:48:04.051Z,45.78
2022-12-08T18:50:33.405Z,45.65
2022-12-08T18:53:04.676Z,45.55
2022-12-08T18:55:35.575Z,45.64
2022-12-08T18:58:09.838Z,45.66
2022-12-08T19:00:43.555Z,45.97
2022-12-08T19:03:13.869Z,45.86
2022-12-08T19:05:44.027Z,45.94
2022-12-08T19:08:13.763Z,45.91
2022-12-08T19:10:44.866Z,45.90
2022-12-08T19:13:14.285Z,45.85
2022-12-08T19:15:45.081Z,46.16
2022-12-08T19:18:14.428Z,46.09
2022-12-08T19:20:43.918Z,46.21
2022-12-08T19:23:15.053Z,46.02
2022-12-08T19:25:48.675Z,46.02
2022-12-08T19:28:20.121Z,45.84
2022-12-08T19:30:49.666Z,45.96
2022-12-08T19:33:19.676Z,45.97
2022-12-08T19:35:52.855Z,46.14
2022-12-08T19:38:25.877Z,46.42
2022-12-08T19:41:16.123Z,46.03
2022-12-08T19:44:03.876Z,45.92
2022-12-08T19:46:40.061Z,46.54
2022-12-08T19:49:13.590Z,46.42
2022-12-08T19:51:43.989Z,46.51
2022-12-08T19:54:14.123Z,46.12
2022-12-08T19:56:45.532Z,46.24
2022-12-08T19:59:16.302Z,46.59
2022-12-08T20:01:48.385Z,46.28
2022-12-08T20:04:21.886Z,46.23
2022-12-08T20:06:53.619Z,46.56
2022-12-08T20:09:24.569Z,46.50
2022-12-08T20:11:56.342Z,46.17
2022-12-08T20:14:26.241Z,46.39
2022-12-08T20:16:55.980Z,46.36
2022-12-08T20:19:26.185Z,46.57
2022-12-08T20:21:59.480Z,46.33
2022-12-08T20:24:29.259Z,46.53
2022-12-08T20:27:00.708Z,46.63
2022-12-08T20:29:33.020Z,46.59
2022-12-08T20:32:03.282Z,46.24
2022-12-08T20:34:35.007Z,46.16
2022-12-08T20:37:05.114Z,46.12
2022-12-08T20:39:35.028Z,46.43
2022-12-08T20:42:08.554Z,46.33
2022-12-08T20:44:43.782Z,46.42
2022-12-08T20:47:15.530Z,45.96
2022-12-08T20:49:47.473Z,46.16
2022-12-08T20:52:17.377Z,46.12
2022-12-08T20:54:47.095Z,46.13
2022-12-08T20:57:17.752Z,46.14
2022-12-08T20:59:46.362Z,46.25
2022-12-08T21:02:15.365Z,45.75
2022-12-08T21:04:44.260Z,45.80
2022-12-08T21:07:14.141Z,46.21
2022-12-08T21:09:43.654Z,45.63
2022-12-08T21:12:12.285Z,45.65
2022-12-08T21:14:42.417Z,46.16
2022-12-08T21:17:11.204Z,46.32
2022-12-08T21:19:39.954Z,46.20
2022-12-08T21:22:08.818Z,45.86
2022-12-08T21:24:38.673Z,45.86
2022-12-08T21:27:07.230Z,45.88
2022-12-08T21:29:35.813Z,46.19
2022-12-08T21:32:06.206Z,46.25
2022-12-08T21:34:34.658Z,46.34
2022-12-08T21:37:03.734Z,45.93
2022-12-08T21:39:32.719Z,46.11
2022-12-08T21:42:22.499Z,46.26
2022-12-08T21:44:51.227Z,46.24
2022-12-08T21:47:21.094Z,46.25
2022-12-08T21:49:49.741Z,46.04
2022-12-08T21:52:18.431Z,46.27
2022-12-08T21:54:47.379Z,46.17
2022-12-08T21:57:15.909Z,46.42
2022-12-08T21:59:44.427Z,46.24
2022-12-08T22:02:18.320Z,45.96
2022-12-08T22:04:52.862Z,46.46
2022-12-08T22:07:22.779Z,46.17
2022-12-08T22:09:51.322Z,46.10
2022-12-08T22:12:19.979Z,46.40
2022-12-08T22:14:51.059Z,46.15
2022-12-08T22:17:20.201Z,46.17
2022-12-08T22:19:48.794Z,46.26
2022-12-08T22:22:18.801Z,45.99
2022-12-08T22:24:47.516Z,46.19
2022-12-08T22:27:16.123Z,46.53
2022-12-08T22:29:45.269Z,46.13
2022-12-08T22:32:13.990Z,46.13
2022-12-08T22:34:42.500Z,46.02
2022-12-08T22:37:11.159Z,46.38
2022-12-08T22:39:41.032Z,46.00
2022-12-08T22:42:09.527Z,45.77
2022-12-08T22:44:38.006Z,45.85
2022-12-08T22:47:06.933Z,46.35
2022-12-08T22:49:36.580Z,45.83
2022-12-08T22:52:05.555Z,45.96
2022-12-08T22:54:34.197Z,45.99
2022-12-08T22:57:03.992Z,46.43
2022-12-08T22:59:33.401Z,46.22
2022-12-08T23:02:02.129Z,46.40
2022-12-08T23:04:30.657Z,46.42
2022-12-08T23:06:59.127Z,46.09
2022-12-08T23:09:27.652Z,46.24
2022-12-08T23:11:56.800Z,46.44
2022-12-08T23:14:26.554Z,46.36
2022-12-08T23:16:55.223Z,46.71
2022-12-08T23:19:23.936Z,46.69
2022-12-08T23:21:52.301Z,46.49
2022-12-08T23:24:20.699Z,46.57
2022-12-08T23:26:49.617Z,46.40
2022-12-08T23:29:18.028Z,46.28
2022-12-08T23:31:47.847Z,46.52
2022-12-08T23:34:16.565Z,46.23
2022-12-08T23:36:44.930Z,46.65
2022-12-08T23:39:13.373Z,46.29
2022-12-08T23:41:42.250Z,46.48
2022-12-08T23:44:12.346Z,46.48
2022-12-08T23:46:41.095Z,46.54
2022-12-08T23:49:12.412Z,46.43
2022-12-08T23:51:40.943Z,46.22
2022-12-08T23:54:09.821Z,46.24
2022-12-08T23:56:38.159Z,46.41
2022-12-08T23:59:06.541Z,46.51
